Time;durP1;ratioP1;P1;durP2;ratioP2;P2;SDS_P1;SDS_P2;PMS_P1;PMS_P2;Temp;Humidity;BMP_temperature;BMP_pressure;BME280_temperature;BME280_humidity;BME280_pressure;Samples;Min_cycle;Max_cycle;Signal;HPM_P1;HPM_P2
2021/09/12 00:00:13;;;;;;;18.53;13.60;;;19.00;99.90;;;;;;5075085;28;20910;-75
2021/09/12 00:02:40;;;;;;;16.20;14.30;;;18.90;99.90;;;;;;5074841;28;20741;-75
2021/09/12 00:05:08;;;;;;;17.37;15.20;;;18.90;99.90;;;;;;5075417;28;20584;-76
2021/09/12 00:07:35;;;;;;;15.40;13.80;;;18.90;99.90;;;;;;5075168;28;20764;-76
2021/09/12 00:10:02;;;;;;;16.73;15.00;;;18.90;99.90;;;;;;5074729;28;20521;-76
2021/09/12 00:12:29;;;;;;;17.27;14.40;;;18.90;99.90;;;;;;5074444;28;20458;-76
2021/09/12 00:14:57;;;;;;;15.47;13.97;;;18.80;99.90;;;;;;5074986;28;20493;-76
2021/09/12 00:17:23;;;;;;;14.50;13.10;;;18.80;99.90;;;;;;5074806;28;20465;-76
2021/09/12 00:19:50;;;;;;;24.90;14.90;;;18.80;99.90;;;;;;5074788;28;21183;-76
2021/09/12 00:22:20;;;;;;;16.43;14.40;;;18.80;99.90;;;;;;5075087;28;20463;-76
2021/09/12 00:24:49;;;;;;;15.83;14.20;;;18.80;99.90;;;;;;5074697;28;20486;-76
2021/09/12 00:27:16;;;;;;;17.17;15.47;;;18.80;99.90;;;;;;5074684;28;20466;-76
2021/09/12 00:29:43;;;;;;;15.83;14.17;;;18.70;99.90;;;;;;5074869;28;20457;-76
2021/09/12 00:32:14;;;;;;;16.03;14.40;;;18.70;99.90;;;;;;5074881;28;20469;-76
2021/09/12 00:34:41;;;;;;;15.37;13.23;;;18.70;99.90;;;;;;5074303;28;20468;-76
2021/09/12 00:37:07;;;;;;;14.93;13.43;;;18.70;99.90;;;;;;5074980;28;20515;-76
2021/09/12 00:39:34;;;;;;;15.67;14.10;;;18.70;99.90;;;;;;5075047;28;20470;-76
2021/09/12 00:42:01;;;;;;;15.77;14.20;;;18.70;99.90;;;;;;5074699;28;20524;-76
2021/09/12 00:44:30;;;;;;;16.77;14.60;;;18.70;99.90;;;;;;5074886;28;20461;-76
2021/09/12 00:47:08;;;;;;;15.03;13.53;;;18.70;99.90;;;;;;5074498;28;20477;-76
2021/09/12 00:49:37;;;;;;;16.60;12.93;;;18.70;99.90;;;;;;5074469;28;20736;-76
2021/09/12 00:52:07;;;;;;;15.20;13.70;;;18.70;99.90;;;;;;5075032;28;20462;-76
2021/09/12 00:54:35;;;;;;;15.93;14.30;;;18.60;99.90;;;;;;5074678;28;20480;-76
2021/09/12 00:57:07;;;;;;;15.20;13.67;;;18.60;99.90;;;;;;5074978;28;20460;-76
2021/09/12 00:59:36;;;;;;;15.57;14.00;;;18.60;99.90;;;;;;5074610;28;20442;-75
2021/09/12 01:02:04;;;;;;;17.63;14.57;;;18.60;99.90;;;;;;5073723;28;20907;-75
2021/09/12 01:04:31;;;;;;;18.23;14.97;;;18.60;99.90;;;;;;5074355;28;20462;-75
2021/09/12 01:07:00;;;;;;;15.50;13.90;;;18.60;99.90;;;;;;5074190;28;20461;-76
2021/09/12 01:09:26;;;;;;;15.47;13.93;;;18.60;99.90;;;;;;5074300;28;20878;-75
2021/09/12 01:11:58;;;;;;;16.80;14.60;;;18.60;99.90;;;;;;5073600;28;20466;-75
2021/09/12 01:14:26;;;;;;;14.70;13.20;;;18.60;99.90;;;;;;5074383;28;20465;-75
2021/09/12 01:16:53;;;;;;;15.83;14.07;;;18.60;99.90;;;;;;5074270;28;20471;-75
2021/09/12 01:19:20;;;;;;;15.30;13.80;;;18.60;99.90;;;;;;5073974;28;20458;-75
2021/09/12 01:21:47;;;;;;;15.20;13.60;;;18.50;99.90;;;;;;5074148;28;20454;-75
2021/09/12 01:24:15;;;;;;;15.30;13.80;;;18.50;99.90;;;;;;5076639;28;20485;-76
2021/09/12 01:26:42;;;;;;;16.20;13.83;;;18.50;99.90;;;;;;5077569;28;20441;-75
2021/09/12 01:29:09;;;;;;;15.40;13.80;;;18.50;99.90;;;;;;5077288;28;20460;-76
2021/09/12 01:31:35;;;;;;;16.00;14.07;;;18.50;99.90;;;;;;5077285;28;20462;-76
2021/09/12 01:34:02;;;;;;;14.97;13.43;;;18.50;99.90;;;;;;5077581;28;20956;-76
2021/09/12 01:36:29;;;;;;;13.30;11.90;;;18.50;99.90;;;;;;5077545;28;20474;-76
2021/09/12 01:38:57;;;;;;;15.50;13.87;;;18.40;99.90;;;;;;5077697;28;20454;-76
2021/09/12 01:41:25;;;;;;;17.00;13.80;;;18.40;99.90;;;;;;5077598;28;20500;-76
2021/09/12 01:43:56;;;;;;;16.80;13.30;;;18.40;99.90;;;;;;5077459;28;20459;-76
2021/09/12 01:46:23;;;;;;;18.37;13.33;;;18.40;99.90;;;;;;5077673;28;20454;-76
2021/09/12 01:48:50;;;;;;;15.70;13.57;;;18.40;99.90;;;;;;5077332;28;20462;-76
2021/09/12 01:51:18;;;;;;;16.37;13.37;;;18.40;99.90;;;;;;5077040;28;20523;-76
2021/09/12 01:53:45;;;;;;;14.13;12.73;;;18.40;99.90;;;;;;5077105;28;20918;-76
2021/09/12 01:56:12;;;;;;;15.90;14.30;;;18.40;99.90;;;;;;5077054;28;20989;-76
2021/09/12 01:58:40;;;;;;;16.47;14.70;;;18.40;99.90;;;;;;5077618;28;20456;-76
2021/09/12 02:01:07;;;;;;;15.47;13.97;;;18.30;99.90;;;;;;5077114;28;20458;-76
2021/09/12 02:03:34;;;;;;;15.80;13.57;;;18.30;99.90;;;;;;5077602;28;20813;-76
2021/09/12 02:06:01;;;;;;;15.20;12.93;;;18.30;99.90;;;;;;5077188;28;20512;-76
2021/09/12 02:08:28;;;;;;;14.80;13.43;;;18.30;99.90;;;;;;5077125;28;20535;-75
2021/09/12 02:10:54;;;;;;;16.73;14.57;;;18.30;99.90;;;;;;5077244;28;20463;-75
2021/09/12 02:13:21;;;;;;;16.13;14.43;;;18.30;99.90;;;;;;5077017;28;20454;-75
2021/09/12 02:15:49;;;;;;;15.50;13.60;;;18.20;99.90;;;;;;5076820;28;20475;-76
2021/09/12 02:18:18;;;;;;;15.13;13.63;;;18.20;99.90;;;;;;5076608;28;21030;-75
2021/09/12 02:20:44;;;;;;;16.03;14.53;;;18.10;99.90;;;;;;5076903;28;20557;-75
2021/09/12 02:23:11;;;;;;;15.00;13.50;;;18.20;99.90;;;;;;5076913;28;20462;-75
2021/09/12 02:25:38;;;;;;;16.97;15.17;;;18.20;99.90;;;;;;5076422;28;20950;-75
2021/09/12 02:28:05;;;;;;;16.17;14.47;;;18.10;99.90;;;;;;5076637;28;20512;-76
2021/09/12 02:30:33;;;;;;;14.67;13.30;;;18.10;99.90;;;;;;5076600;28;20455;-75
2021/09/12 02:33:01;;;;;;;16.60;14.80;;;18.10;99.90;;;;;;5076773;28;20457;-75
2021/09/12 02:35:28;;;;;;;16.13;14.53;;;18.10;99.90;;;;;;5076052;28;20485;-75
2021/09/12 02:37:55;;;;;;;17.13;14.10;;;18.10;99.90;;;;;;5076190;28;20454;-75
2021/09/12 02:40:24;;;;;;;15.70;14.10;;;18.10;99.90;;;;;;5076496;28;20532;-74
2021/09/12 02:42:50;;;;;;;17.53;15.50;;;18.10;99.90;;;;;;5076557;28;20455;-75
2021/09/12 02:45:17;;;;;;;18.17;16.37;;;18.10;99.90;;;;;;5076036;28;20461;-75
2021/09/12 02:47:46;;;;;;;17.47;15.63;;;18.10;99.90;;;;;;5076343;28;20462;-76
2021/09/12 02:50:14;;;;;;;17.20;15.50;;;18.00;99.90;;;;;;5076130;28;20918;-76
2021/09/12 02:52:43;;;;;;;15.63;14.03;;;18.00;99.90;;;;;;5076237;28;20465;-75
2021/09/12 02:55:11;;;;;;;16.13;14.43;;;18.00;99.90;;;;;;5075771;28;20760;-75
2021/09/12 02:57:38;;;;;;;17.07;14.57;;;18.00;99.90;;;;;;5076429;28;20496;-75
2021/09/12 03:00:09;;;;;;;20.80;15.43;;;18.00;99.90;;;;;;5075863;28;20454;-76
2021/09/12 03:02:39;;;;;;;17.30;15.57;;;18.00;99.90;;;;;;5076316;28;20458;-75
2021/09/12 03:05:07;;;;;;;16.53;14.73;;;18.00;99.90;;;;;;5076047;28;20973;-75
2021/09/12 03:07:35;;;;;;;16.70;15.10;;;18.00;99.90;;;;;;5076425;28;20459;-75
2021/09/12 03:10:01;;;;;;;17.70;16.00;;;18.00;99.90;;;;;;5077054;28;20520;-75
2021/09/12 03:12:28;;;;;;;16.20;14.60;;;18.00;99.90;;;;;;5076623;28;20794;-76
2021/09/12 23:11:05;;;;;;;8.93;7.50;;;18.30;99.90;;;;;;5081794;28;20470;-77
2021/09/12 23:13:32;;;;;;;9.43;8.50;;;18.20;99.90;;;;;;5084028;28;20462;-78
2021/09/12 23:15:59;;;;;;;8.60;7.70;;;18.20;99.90;;;;;;5079546;28;20465;-78
2021/09/12 23:18:26;;;;;;;8.77;8.00;;;18.10;99.90;;;;;;5078058;28;20788;-77
2021/09/12 23:20:52;;;;;;;9.33;8.37;;;18.10;99.90;;;;;;5078461;28;20757;-77
2021/09/12 23:23:19;;;;;;;10.10;7.70;;;18.10;99.90;;;;;;5078317;28;20462;-77
2021/09/12 23:25:46;;;;;;;10.17;9.03;;;18.10;99.90;;;;;;5077864;28;20515;-75
2021/09/12 23:28:14;;;;;;;13.40;8.77;;;18.00;99.90;;;;;;5076051;28;20461;-76
2021/09/12 23:30:41;;;;;;;13.00;8.40;;;18.10;99.90;;;;;;5076581;28;20470;-77
2021/09/12 23:33:07;;;;;;;9.07;7.40;;;18.00;99.90;;;;;;5076716;28;20823;-77
2021/09/12 23:35:34;;;;;;;10.80;8.63;;;18.00;99.90;;;;;;5075899;28;20458;-76
2021/09/12 23:38:03;;;;;;;8.60;7.80;;;18.00;99.90;;;;;;5076115;28;20468;-76
2021/09/12 23:40:29;;;;;;;10.50;9.40;;;17.90;99.90;;;;;;5076179;28;20465;-77
2021/09/12 23:42:56;;;;;;;9.63;8.63;;;17.90;99.90;;;;;;5076451;28;20466;-76
2021/09/12 23:45:24;;;;;;;10.33;8.43;;;17.80;99.90;;;;;;5076426;28;20915;-77
2021/09/12 23:47:51;;;;;;;9.40;7.67;;;17.80;99.90;;;;;;5077435;28;20478;-76
2021/09/12 23:50:19;;;;;;;10.83;8.40;;;17.80;99.90;;;;;;5081744;28;20931;-76
2021/09/12 23:52:46;;;;;;;9.57;7.70;;;17.80;99.90;;;;;;5078557;28;20454;-77
2021/09/12 23:55:13;;;;;;;10.30;8.10;;;17.70;99.90;;;;;;5076456;28;20472;-77
2021/09/12 23:57:40;;;;;;;9.30;7.87;;;17.70;99.90;;;;;;5077847;28;20455;-77
